createdAt,value
2023-02-03T00:01:08.856Z,18.02
2023-02-03T00:03:36.833Z,18.02
2023-02-03T00:06:04.568Z,18.01
2023-02-03T00:08:32.266Z,17.99
2023-02-03T00:10:59.723Z,17.99
2023-02-03T00:13:26.946Z,17.99
2023-02-03T00:15:53.872Z,17.99
2023-02-03T00:18:20.802Z,17.99
2023-02-03T00:20:47.802Z,18.00
2023-02-03T00:23:14.727Z,17.99
2023-02-03T00:25:43.020Z,17.99
2023-02-03T00:28:10.207Z,17.98
2023-02-03T00:30:38.091Z,17.99
2023-02-03T00:33:05.368Z,17.98
2023-02-03T00:35:34.791Z,17.98
2023-02-03T00:38:01.664Z,17.98
2023-02-03T00:40:30.109Z,17.97
2023-02-03T00:42:57.387Z,17.96
2023-02-03T00:45:24.325Z,17.96
2023-02-03T00:47:51.454Z,17.97
2023-02-03T00:50:18.499Z,17.97
2023-02-03T00:52:45.471Z,17.96
2023-02-03T00:55:12.450Z,17.96
2023-02-03T00:57:39.359Z,17.96
2023-02-03T01:00:07.449Z,17.95
2023-02-03T01:02:35.914Z,17.95
2023-02-03T01:05:02.849Z,17.95
2023-02-03T01:07:33.479Z,17.95
2023-02-03T01:10:00.458Z,17.94
2023-02-03T01:12:30.052Z,17.93
2023-02-03T01:14:57.081Z,17.93
2023-02-03T01:17:24.930Z,17.93
2023-02-03T01:19:53.011Z,17.93
2023-02-03T01:22:20.507Z,17.92
2023-02-03T01:24:47.747Z,17.92
2023-02-03T01:27:14.673Z,17.92
2023-02-03T01:29:41.621Z,17.92
2023-02-03T01:32:08.575Z,17.92
2023-02-03T01:34:35.501Z,17.92
2023-02-03T01:37:02.415Z,17.92
2023-02-03T01:39:29.432Z,17.92
2023-02-03T01:41:56.862Z,17.91
2023-02-03T01:44:45.652Z,17.91
2023-02-03T01:47:19.106Z,17.90
2023-02-03T01:49:52.245Z,17.90
2023-02-03T01:52:19.451Z,17.90
2023-02-03T01:54:50.446Z,17.90
2023-02-03T01:57:21.948Z,17.90
2023-02-03T01:59:51.803Z,17.90
2023-02-03T02:02:18.846Z,17.90
2023-02-03T02:05:07.889Z,17.90
2023-02-03T02:07:38.120Z,17.90
2023-02-03T02:10:05.999Z,17.90
2023-02-03T02:12:32.939Z,17.90
2023-02-03T02:15:00.584Z,17.89
2023-02-03T02:17:48.565Z,17.90
2023-02-03T02:20:24.898Z,17.88
2023-02-03T02:23:12.301Z,17.88
2023-02-03T02:26:08.589Z,17.88
2023-02-03T02:29:06.288Z,17.87
2023-02-03T02:31:39.459Z,17.87
2023-02-03T02:34:23.135Z,17.88
2023-02-03T02:37:01.604Z,17.87
2023-02-03T02:39:47.031Z,17.87
2023-02-03T02:42:41.731Z,17.87
2023-02-03T02:45:14.994Z,17.88
2023-02-03T02:47:42.204Z,17.88
2023-02-03T02:50:28.503Z,17.87
2023-02-03T02:52:57.066Z,17.86
2023-02-03T02:55:28.949Z,17.86
2023-02-03T02:58:03.778Z,17.86
2023-02-03T03:00:32.249Z,17.86
2023-02-03T03:03:18.349Z,17.86
2023-02-03T03:05:52.650Z,17.86
2023-02-03T03:08:28.287Z,17.86
2023-02-03T03:10:58.637Z,17.86
2023-02-03T03:13:30.454Z,17.85
2023-02-03T03:16:01.023Z,17.86
2023-02-03T03:18:37.674Z,17.85
2023-02-03T03:21:07.074Z,17.85
2023-02-03T03:23:47.034Z,17.86
2023-02-03T03:26:31.746Z,17.85
2023-02-03T03:29:29.617Z,17.84
2023-02-03T03:31:58.601Z,17.84
2023-02-03T03:34:25.819Z,17.84
2023-02-03T03:37:08.035Z,17.84
2023-02-03T03:40:01.078Z,17.84
2023-02-03T03:43:01.531Z,17.84
2023-02-03T03:45:50.494Z,17.84
2023-02-03T03:48:28.208Z,17.84
2023-02-03T03:51:19.128Z,17.84
2023-02-03T03:53:50.107Z,17.84
2023-02-03T03:56:24.485Z,17.84
2023-02-03T03:58:54.109Z,17.83
2023-02-03T04:01:23.650Z,17.82
2023-02-03T04:03:56.385Z,17.82
2023-02-03T04:06:24.081Z,17.81
2023-02-03T04:08:51.186Z,17.81
2023-02-03T04:11:38.097Z,17.82
2023-02-03T04:14:05.230Z,17.81
2023-02-03T04:16:32.287Z,17.81
2023-02-03T04:18:59.420Z,17.81
2023-02-03T04:21:26.333Z,17.81
2023-02-03T04:23:53.360Z,17.81
2023-02-03T04:26:20.444Z,17.81
2023-02-03T04:28:47.383Z,17.81
2023-02-03T04:31:14.473Z,17.82
2023-02-03T04:33:41.587Z,17.82
2023-02-03T04:36:09.092Z,17.82
2023-02-03T04:38:36.368Z,17.82
2023-02-03T04:41:03.362Z,17.82
2023-02-03T04:43:30.373Z,17.82
2023-02-03T04:46:00.784Z,17.82
2023-02-03T04:48:28.182Z,17.82
2023-02-03T04:50:55.231Z,17.82
2023-02-03T04:53:22.228Z,17.82
2023-02-03T04:55:49.308Z,17.81
2023-02-03T04:58:16.382Z,17.80
2023-02-03T05:00:43.488Z,17.80
2023-02-03T05:03:10.568Z,17.80
2023-02-03T05:05:37.588Z,17.80
2023-02-03T05:08:05.045Z,17.81
2023-02-03T05:10:32.453Z,17.81
2023-02-03T05:12:59.510Z,17.81
2023-02-03T05:15:26.773Z,17.81
2023-02-03T05:17:54.690Z,17.80
2023-02-03T05:20:22.324Z,17.81
2023-02-03T05:22:49.273Z,17.81
2023-02-03T05:25:16.234Z,17.80
2023-02-03T05:27:43.751Z,17.80
2023-02-03T05:30:11.351Z,17.80
2023-02-03T05:32:38.286Z,17.79
2023-02-03T05:35:05.485Z,17.79
2023-02-03T05:37:32.444Z,17.79
2023-02-03T05:40:19.307Z,17.78
2023-02-03T05:42:50.111Z,17.79
2023-02-03T05:45:17.615Z,17.79
2023-02-03T05:47:44.662Z,17.79
2023-02-03T05:50:11.560Z,17.80
2023-02-03T05:52:38.521Z,17.79
2023-02-03T05:55:05.900Z,17.79
2023-02-03T05:57:32.871Z,17.79
2023-02-03T05:59:59.741Z,17.78
2023-02-03T06:02:26.676Z,17.77
2023-02-03T06:04:53.611Z,17.77
2023-02-03T06:07:20.612Z,17.77
2023-02-03T06:09:47.783Z,17.76
2023-02-03T06:12:15.946Z,17.76
2023-02-03T06:14:42.911Z,17.76
2023-02-03T06:17:09.854Z,17.77
2023-02-03T06:19:36.771Z,17.77
2023-02-03T06:22:03.690Z,17.77
2023-02-03T06:24:30.777Z,17.77
2023-02-03T06:26:57.637Z,17.77
2023-02-03T06:29:24.544Z,17.77
2023-02-03T06:31:51.718Z,17.77
2023-02-03T06:34:18.654Z,17.76
2023-02-03T06:36:45.601Z,17.76
2023-02-03T06:39:12.527Z,17.76
2023-02-03T06:41:39.451Z,17.76
2023-02-03T06:44:06.944Z,17.76
2023-02-03T06:46:34.206Z,17.76
2023-02-03T06:49:01.337Z,17.76
2023-02-03T06:51:28.378Z,17.77
2023-02-03T06:53:55.330Z,17.77
2023-02-03T06:56:22.241Z,17.77
2023-02-03T06:58:49.229Z,17.77
2023-02-03T07:01:16.193Z,17.77
2023-02-03T07:03:43.604Z,17.77
2023-02-03T07:06:10.547Z,17.77
2023-02-03T07:08:37.463Z,17.76
2023-02-03T07:11:04.658Z,17.76
2023-02-03T07:13:31.627Z,17.76
2023-02-03T07:15:58.866Z,17.75
2023-02-03T07:21:14.873Z,17.78
2023-02-03T07:23:41.831Z,17.82
2023-02-03T07:26:08.978Z,17.85
2023-02-03T07:28:36.633Z,17.89
2023-02-03T07:31:05.109Z,17.91
2023-02-03T07:33:32.444Z,17.94
2023-02-03T07:36:00.456Z,17.96
2023-02-03T07:38:28.749Z,17.97
2023-02-03T07:40:56.293Z,17.99
2023-02-03T07:43:23.972Z,18.03
2023-02-03T07:45:50.949Z,18.05
2023-02-03T07:48:18.188Z,18.07
2023-02-03T07:50:45.958Z,18.10
2023-02-03T07:53:12.942Z,18.11
2023-02-03T07:55:40.531Z,18.13
2023-02-03T07:58:07.886Z,18.16
2023-02-03T08:00:35.293Z,18.16
2023-02-03T08:03:04.459Z,18.15
2023-02-03T08:05:31.546Z,18.15
2023-02-03T08:07:59.614Z,18.16
2023-02-03T08:10:27.516Z,18.15
2023-02-03T08:12:55.761Z,18.15
2023-02-03T08:15:22.811Z,18.14
2023-02-03T08:17:50.481Z,18.13
2023-02-03T08:20:18.298Z,18.12
2023-02-03T08:22:45.384Z,18.11
2023-02-03T08:25:13.250Z,18.11
2023-02-03T08:27:41.534Z,18.11
2023-02-03T08:30:12.509Z,18.11
2023-02-03T08:32:39.638Z,18.11
2023-02-03T08:35:07.178Z,18.13
2023-02-03T08:37:34.648Z,18.13
2023-02-03T08:40:02.093Z,18.13
2023-02-03T08:42:29.144Z,18.14
2023-02-03T08:44:56.422Z,18.15
2023-02-03T08:47:23.735Z,18.16
2023-02-03T08:49:50.780Z,18.16
2023-02-03T08:52:19.109Z,18.16
2023-02-03T08:54:47.023Z,18.18
2023-02-03T08:57:14.369Z,18.21
2023-02-03T08:59:43.496Z,18.23
2023-02-03T09:02:16.688Z,18.25
2023-02-03T09:04:44.497Z,18.29
2023-02-03T09:07:12.249Z,18.32
2023-02-03T09:09:39.497Z,18.35
2023-02-03T09:12:07.413Z,18.38
2023-02-03T09:14:35.337Z,18.41
2023-02-03T09:17:03.997Z,18.44
2023-02-03T09:19:34.264Z,18.46
2023-02-03T09:22:02.425Z,18.48
2023-02-03T09:24:29.647Z,18.50
2023-02-03T09:26:57.422Z,18.52
2023-02-03T09:29:24.635Z,18.54
2023-02-03T09:31:53.113Z,18.55
2023-02-03T09:34:21.143Z,18.57
2023-02-03T09:36:48.336Z,18.58
2023-02-03T09:39:15.995Z,18.59
2023-02-03T09:41:49.010Z,18.60
2023-02-03T09:44:34.926Z,18.61
2023-02-03T09:47:09.935Z,18.61
2023-02-03T09:49:53.992Z,18.61
2023-02-03T09:52:24.739Z,18.63
2023-02-03T09:54:55.159Z,18.64
2023-02-03T09:57:28.454Z,18.65
2023-02-03T10:00:02.585Z,18.66
2023-02-03T10:02:55.502Z,18.67
2023-02-03T10:05:47.728Z,18.68
2023-02-03T10:08:36.014Z,18.68
2023-02-03T10:11:51.016Z,18.68
2023-02-03T10:14:56.089Z,18.68
2023-02-03T10:17:31.136Z,18.68
2023-02-03T10:20:18.416Z,18.69
2023-02-03T10:23:02.277Z,18.70
2023-02-03T10:25:34.179Z,18.71
2023-02-03T10:28:05.395Z,18.71
2023-02-03T10:30:45.891Z,18.71
2023-02-03T10:33:16.722Z,18.72
2023-02-03T10:35:43.616Z,18.72
2023-02-03T10:38:15.843Z,18.74
2023-02-03T10:40:42.852Z,18.74
2023-02-03T10:43:29.944Z,18.75
2023-02-03T10:45:58.775Z,18.77
2023-02-03T10:48:25.922Z,18.77
2023-02-03T10:50:54.945Z,18.78
2023-02-03T10:53:32.859Z,18.79
2023-02-03T10:56:07.780Z,18.80
2023-02-03T10:58:37.480Z,18.80
2023-02-03T11:01:10.009Z,18.80
2023-02-03T11:03:38.306Z,18.81
2023-02-03T11:06:06.895Z,18.82
2023-02-03T11:08:36.125Z,18.82
2023-02-03T11:11:07.616Z,18.83
2023-02-03T11:13:35.244Z,18.85
2023-02-03T11:16:06.375Z,18.85
2023-02-03T11:18:46.926Z,18.86
2023-02-03T11:21:31.808Z,18.86
2023-02-03T11:24:01.319Z,18.87
2023-02-03T11:26:32.960Z,18.88
2023-02-03T11:29:02.112Z,18.89
2023-02-03T11:31:40.173Z,18.89
2023-02-03T11:34:17.366Z,18.90
2023-02-03T11:36:44.695Z,18.90
2023-02-03T11:39:21.486Z,18.91
2023-02-03T11:41:48.920Z,18.93
2023-02-03T11:44:18.176Z,18.94
2023-02-03T11:46:52.518Z,18.94
2023-02-03T11:49:55.011Z,18.93
2023-02-03T11:53:00.658Z,18.93
2023-02-03T11:55:35.237Z,18.92
2023-02-03T11:58:32.906Z,18.91
2023-02-03T12:01:16.657Z,18.89
2023-02-03T12:04:07.567Z,18.88
2023-02-03T12:06:59.078Z,18.85
2023-02-03T12:09:51.313Z,18.84
2023-02-03T12:12:51.434Z,18.81
2023-02-03T12:15:22.061Z,18.79
2023-02-03T12:18:08.773Z,18.78
2023-02-03T12:20:56.399Z,18.78
2023-02-03T12:23:57.376Z,18.77
2023-02-03T12:26:30.228Z,18.76
2023-02-03T12:29:23.823Z,18.76
2023-02-03T12:32:27.297Z,18.77
2023-02-03T12:35:04.283Z,18.76
2023-02-03T12:37:43.526Z,18.76
2023-02-03T12:40:39.535Z,18.75
2023-02-03T12:43:38.434Z,18.76
2023-02-03T12:46:17.225Z,18.76
2023-02-03T12:49:01.105Z,18.75
2023-02-03T12:51:43.294Z,18.75
2023-02-03T12:54:33.282Z,18.75
2023-02-03T12:57:16.326Z,18.75
2023-02-03T12:59:56.581Z,18.76
2023-02-03T13:02:29.909Z,18.75
2023-02-03T13:05:05.633Z,18.77
2023-02-03T13:08:17.401Z,18.78
2023-02-03T13:10:53.252Z,18.78
2023-02-03T13:13:48.839Z,18.78
2023-02-03T13:16:20.187Z,18.80
2023-02-03T13:18:54.206Z,18.83
2023-02-03T13:21:21.222Z,18.87
2023-02-03T13:23:48.737Z,18.89
2023-02-03T13:26:33.907Z,18.91
2023-02-03T13:29:13.246Z,18.92
2023-02-03T13:31:49.589Z,18.93
2023-02-03T13:34:38.270Z,18.93
2023-02-03T13:37:17.088Z,18.93
2023-02-03T13:40:14.753Z,18.91
2023-02-03T13:42:46.710Z,18.90
2023-02-03T13:45:39.790Z,18.90
2023-02-03T13:48:18.221Z,18.90
2023-02-03T13:50:46.891Z,18.90
2023-02-03T13:53:23.441Z,18.90
2023-02-03T13:55:55.608Z,18.89
2023-02-03T13:58:33.114Z,18.88
2023-02-03T14:01:07.880Z,18.86
2023-02-03T14:03:35.525Z,18.86
2023-02-03T14:06:03.801Z,18.85
2023-02-03T14:08:32.048Z,18.85
2023-02-03T14:11:36.572Z,18.85
2023-02-03T14:14:13.032Z,18.85
2023-02-03T14:16:49.086Z,18.86
2023-02-03T14:19:22.237Z,18.86
2023-02-03T14:21:56.326Z,18.86
2023-02-03T14:24:24.067Z,18.86
2023-02-03T14:26:54.292Z,18.87
2023-02-03T14:29:32.573Z,18.88
2023-02-03T14:32:17.461Z,18.90
2023-02-03T14:34:50.224Z,18.91
2023-02-03T14:37:26.220Z,18.93
2023-02-03T14:39:56.092Z,18.95
2023-02-03T14:42:53.876Z,18.96
2023-02-03T14:45:41.416Z,18.98
2023-02-03T14:48:46.018Z,19.00
2023-02-03T14:51:22.653Z,19.01
2023-02-03T14:54:05.590Z,19.03
2023-02-03T14:57:21.675Z,19.04
2023-02-03T14:59:54.284Z,19.04
2023-02-03T15:02:25.490Z,19.06
2023-02-03T15:05:13.389Z,19.06
2023-02-03T15:07:49.720Z,19.06
2023-02-03T15:10:27.220Z,19.07
2023-02-03T15:12:58.315Z,19.06
2023-02-03T15:15:30.738Z,19.05
2023-02-03T15:18:00.258Z,19.05
2023-02-03T15:20:44.215Z,19.06
2023-02-03T15:23:22.280Z,19.07
2023-02-03T15:25:57.718Z,19.07
2023-02-03T15:28:26.657Z,19.08
2023-02-03T15:31:22.946Z,19.08
2023-02-03T15:33:52.670Z,19.09
2023-02-03T15:36:23.531Z,19.10
2023-02-03T15:38:57.999Z,19.11
2023-02-03T15:41:26.450Z,19.12
2023-02-03T15:44:11.882Z,19.13
2023-02-03T15:46:47.405Z,19.13
2023-02-03T15:49:21.310Z,19.14
2023-02-03T15:51:58.532Z,19.14
2023-02-03T15:54:41.384Z,19.14
2023-02-03T15:57:14.976Z,19.13
2023-02-03T15:59:46.464Z,19.13
2023-02-03T16:02:19.300Z,19.13
2023-02-03T16:04:46.686Z,19.14
2023-02-03T16:07:21.647Z,19.14
2023-02-03T16:09:52.677Z,19.14
2023-02-03T16:12:27.487Z,19.13
2023-02-03T16:14:56.564Z,19.12
2023-02-03T16:17:30.446Z,19.11
2023-02-03T16:20:12.299Z,19.08
2023-02-03T16:22:59.070Z,19.06
2023-02-03T16:25:29.742Z,19.04
2023-02-03T16:28:27.437Z,19.01
2023-02-03T16:31:16.531Z,18.99
2023-02-03T16:34:07.609Z,18.97
2023-02-03T16:36:58.983Z,18.95
2023-02-03T16:39:45.978Z,18.94
2023-02-03T16:42:36.935Z,18.92
2023-02-03T16:45:30.057Z,18.91
2023-02-03T16:48:16.230Z,18.89
2023-02-03T16:50:54.123Z,18.87
2023-02-03T16:53:26.613Z,18.86
2023-02-03T16:55:56.152Z,18.84
2023-02-03T16:58:23.171Z,18.83
2023-02-03T17:00:52.333Z,18.82
2023-02-03T17:03:25.032Z,18.80
2023-02-03T17:05:53.310Z,18.80
2023-02-03T17:08:22.814Z,18.77
2023-02-03T17:10:50.481Z,18.76
2023-02-03T17:13:21.132Z,18.75
2023-02-03T17:15:52.849Z,18.74
2023-02-03T17:18:20.283Z,18.74
2023-02-03T17:20:47.960Z,18.73
2023-02-03T17:23:16.753Z,18.72
2023-02-03T17:25:48.548Z,18.72
2023-02-03T17:28:15.641Z,18.72
2023-02-03T17:30:42.722Z,18.71
2023-02-03T17:33:13.016Z,18.71
2023-02-03T17:35:42.648Z,18.71
2023-02-03T17:38:11.013Z,18.71
2023-02-03T17:54:34.340Z,18.67
2023-02-03T17:57:01.342Z,18.66
2023-02-03T17:59:28.392Z,18.67
2023-02-03T18:01:55.607Z,18.66
2023-02-03T18:04:22.654Z,18.64
2023-02-03T18:06:49.593Z,18.62
2023-02-03T18:09:16.852Z,18.61
2023-02-03T18:11:45.945Z,18.58
2023-02-03T18:14:15.315Z,18.57
2023-02-03T18:16:42.899Z,18.56
2023-02-03T18:19:14.557Z,18.56
2023-02-03T18:21:43.052Z,18.56
2023-02-03T18:24:12.574Z,18.55
2023-02-03T18:26:49.001Z,18.54
2023-02-03T18:29:15.946Z,18.53
2023-02-03T18:31:44.724Z,18.52
2023-02-03T18:34:12.286Z,18.50
2023-02-03T18:39:12.741Z,18.49
2023-02-03T18:41:40.109Z,18.48
2023-02-03T18:44:07.183Z,18.48
2023-02-03T18:46:34.424Z,18.48
2023-02-03T18:49:01.467Z,18.47
2023-02-03T18:51:28.525Z,18.48
2023-02-03T18:53:59.743Z,18.47
2023-02-03T18:56:35.769Z,18.47
2023-02-03T18:59:09.017Z,18.47
2023-02-03T19:01:36.766Z,18.47
2023-02-03T19:04:04.120Z,18.47
2023-02-03T19:06:32.913Z,18.48
2023-02-03T19:09:00.868Z,18.49
2023-02-03T19:11:28.950Z,18.50
2023-02-03T19:13:56.062Z,18.51
2023-02-03T19:16:23.226Z,18.54
2023-02-03T19:18:50.280Z,18.56
2023-02-03T19:21:17.643Z,18.58
2023-02-03T19:23:45.278Z,18.60
2023-02-03T19:26:12.456Z,18.61
2023-02-03T19:28:40.820Z,18.63
2023-02-03T19:31:15.603Z,18.65
2023-02-03T19:33:43.113Z,18.66
2023-02-03T19:36:11.355Z,18.68
2023-02-03T19:38:38.340Z,18.70
2023-02-03T19:41:07.285Z,18.74
2023-02-03T19:43:34.281Z,18.78
2023-02-03T19:46:02.464Z,18.81
2023-02-03T19:48:29.512Z,18.83
2023-02-03T19:50:57.139Z,18.85
2023-02-03T19:53:24.527Z,18.85
2023-02-03T19:55:51.755Z,18.86
2023-02-03T19:58:18.825Z,18.86
2023-02-03T20:00:46.000Z,18.86
2023-02-03T20:03:12.926Z,18.83
2023-02-03T20:05:39.972Z,18.80
2023-02-03T20:08:06.914Z,18.77
2023-02-03T20:10:33.853Z,18.74
2023-02-03T20:13:01.217Z,18.73
2023-02-03T20:15:28.773Z,18.72
2023-02-03T20:17:56.032Z,18.74
2023-02-03T20:20:23.375Z,18.74
2023-02-03T20:22:51.495Z,18.72
2023-02-03T20:25:19.327Z,18.73
2023-02-03T20:27:46.453Z,18.74
2023-02-03T20:30:13.966Z,18.75
2023-02-03T20:32:41.093Z,18.76
2023-02-03T20:35:08.819Z,18.77
2023-02-03T20:37:38.869Z,18.78
2023-02-03T20:40:32.303Z,18.78
2023-02-03T20:43:03.255Z,18.78
2023-02-03T20:45:30.643Z,18.77
2023-02-03T20:47:58.676Z,18.77
2023-02-03T20:50:37.356Z,18.75
2023-02-03T20:53:12.874Z,18.73
2023-02-03T20:55:39.873Z,18.71
2023-02-03T20:58:19.626Z,18.67
2023-02-03T21:00:47.250Z,18.63
2023-02-03T21:03:35.274Z,18.60
2023-02-03T21:06:03.834Z,18.57
2023-02-03T21:08:31.188Z,18.56
2023-02-03T21:10:58.137Z,18.54
2023-02-03T21:13:28.028Z,18.53
2023-02-03T21:16:04.623Z,18.52
2023-02-03T21:18:32.483Z,18.51
2023-02-03T21:21:02.629Z,18.50
2023-02-03T21:23:40.241Z,18.50
2023-02-03T21:26:29.089Z,18.51
2023-02-03T21:28:58.581Z,18.51
2023-02-03T21:31:31.202Z,18.51
2023-02-03T21:34:00.393Z,18.50
2023-02-03T21:36:31.242Z,18.50
2023-02-03T21:39:00.317Z,18.50
2023-02-03T21:41:36.032Z,18.50
2023-02-03T21:44:21.933Z,18.50
2023-02-03T21:46:48.863Z,18.52
2023-02-03T21:49:17.437Z,18.54
2023-02-03T21:51:45.098Z,18.55
2023-02-03T21:54:28.296Z,18.57
2023-02-03T21:56:55.575Z,18.58
2023-02-03T21:59:33.454Z,18.58
2023-02-03T22:02:00.912Z,18.60
2023-02-03T22:04:29.214Z,18.61
2023-02-03T22:06:56.826Z,18.61
2023-02-03T22:09:26.474Z,18.62
2023-02-03T22:11:54.154Z,18.63
2023-02-03T22:14:21.258Z,18.64
2023-02-03T22:16:49.795Z,18.64
2023-02-03T22:19:17.817Z,18.63
2023-02-03T22:21:45.352Z,18.63
2023-02-03T22:24:12.602Z,18.62
2023-02-03T22:26:39.572Z,18.60
2023-02-03T22:29:06.595Z,18.59
2023-02-03T22:31:33.929Z,18.57
2023-02-03T22:34:05.059Z,18.56
2023-02-03T22:36:34.084Z,18.56
2023-02-03T22:39:00.994Z,18.54
2023-02-03T22:41:28.084Z,18.54
2023-02-03T22:43:55.949Z,18.54
2023-02-03T22:46:22.884Z,18.54
2023-02-03T22:48:50.053Z,18.52
2023-02-03T22:51:17.084Z,18.51
2023-02-03T22:53:44.248Z,18.50
2023-02-03T22:56:11.752Z,18.48
2023-02-03T22:58:38.731Z,18.47
2023-02-03T23:01:06.111Z,18.47
2023-02-03T23:03:33.363Z,18.46
2023-02-03T23:06:00.518Z,18.46
2023-02-03T23:08:27.847Z,18.45
2023-02-03T23:10:56.161Z,18.45
2023-02-03T23:13:23.571Z,18.44
2023-02-03T23:15:51.247Z,18.44
2023-02-03T23:18:18.402Z,18.44
2023-02-03T23:20:45.539Z,18.44
2023-02-03T23:23:14.303Z,18.44
2023-02-03T23:25:41.512Z,18.44
2023-02-03T23:28:08.609Z,18.45
2023-02-03T23:30:35.578Z,18.44
2023-02-03T23:33:02.626Z,18.45
2023-02-03T23:35:49.748Z,18.44
2023-02-03T23:38:18.230Z,18.43
2023-02-03T23:40:45.376Z,18.43
2023-02-03T23:43:12.574Z,18.43
2023-02-03T23:45:40.159Z,18.44
2023-02-03T23:48:08.149Z,18.45
2023-02-03T23:50:35.705Z,18.46
2023-02-03T23:53:02.791Z,18.48
2023-02-03T23:55:31.592Z,18.49
2023-02-03T23:57:58.545Z,18.50
